createdAt,value
2022-08-07T00:00:15.443Z,24.52
2022-08-07T00:01:44.306Z,24.57
2022-08-07T00:02:44.265Z,24.56
2022-08-07T00:03:47.639Z,24.46
2022-08-07T00:04:49.508Z,24.52
2022-08-07T00:05:53.197Z,24.43
2022-08-07T00:06:55.806Z,24.49
2022-08-07T00:08:04.782Z,24.50
2022-08-07T00:09:17.143Z,24.50
2022-08-07T00:10:26.325Z,24.51
2022-08-07T00:11:30.076Z,24.46
2022-08-07T00:12:35.123Z,24.45
2022-08-07T00:13:57.147Z,24.42
2022-08-07T00:15:01.117Z,24.39
2022-08-07T00:16:04.780Z,24.28
2022-08-07T00:17:09.255Z,24.15
2022-08-07T00:18:19.823Z,23.90
2022-08-07T00:19:34.111Z,23.71
2022-08-07T00:20:49.735Z,23.56
2022-08-07T00:21:56.655Z,23.54
2022-08-07T00:23:08.045Z,23.64
2022-08-07T00:24:10.476Z,23.58
2022-08-07T00:25:16.641Z,23.57
2022-08-07T00:26:48.679Z,23.57
2022-08-07T00:27:53.534Z,23.53
2022-08-07T00:28:58.328Z,23.55
2022-08-07T00:30:00.042Z,23.64
2022-08-07T00:31:06.296Z,23.68
2022-08-07T00:32:15.194Z,23.72
2022-08-07T00:33:17.542Z,23.61
2022-08-07T00:34:19.314Z,23.77
2022-08-07T00:35:23.727Z,23.67
2022-08-07T00:36:25.837Z,23.77
2022-08-07T00:37:30.800Z,23.78
2022-08-07T00:38:50.500Z,23.76
2022-08-07T00:39:56.232Z,23.77
2022-08-07T00:40:58.423Z,23.51
2022-08-07T00:42:01.923Z,23.70
2022-08-07T00:43:09.820Z,23.77
2022-08-07T00:44:15.995Z,23.70
2022-08-07T00:45:21.314Z,23.68
2022-08-07T00:46:24.547Z,23.71
2022-08-07T00:48:09.948Z,23.69
2022-08-07T00:48:49.793Z,23.78
2022-08-07T00:50:20.158Z,23.75
2022-08-07T00:51:15.651Z,23.83
2022-08-07T00:52:20.154Z,23.81
2022-08-07T00:53:22.220Z,23.71
2022-08-07T00:54:23.989Z,23.72
2022-08-07T00:56:02.665Z,23.86
2022-08-07T00:56:50.199Z,23.85
2022-08-07T00:57:55.191Z,23.84
2022-08-07T00:58:58.581Z,23.85
2022-08-07T01:00:00.446Z,23.78
2022-08-07T01:01:02.291Z,23.89
2022-08-07T01:02:09.044Z,23.86
2022-08-07T01:03:56.942Z,23.85
2022-08-07T01:04:50.823Z,23.85
2022-08-07T01:05:55.855Z,23.84
2022-08-07T01:06:57.866Z,23.79
2022-08-07T01:07:59.846Z,23.79
2022-08-07T01:09:02.821Z,23.79
2022-08-07T01:10:11.099Z,23.80
2022-08-07T01:12:04.621Z,23.83
2022-08-07T01:12:38.751Z,23.84
2022-08-07T01:13:41.542Z,23.83
2022-08-07T01:15:01.514Z,23.79
2022-08-07T01:16:07.784Z,23.77
2022-08-07T01:17:11.039Z,23.74
2022-08-07T01:18:17.433Z,23.49
2022-08-07T01:19:20.931Z,23.57
2022-08-07T01:20:33.478Z,23.51
2022-08-07T01:21:36.936Z,23.61
2022-08-07T01:22:46.703Z,23.63
2022-08-07T01:23:57.632Z,23.62
2022-08-07T01:25:01.083Z,23.63
2022-08-07T01:26:12.017Z,23.60
2022-08-07T01:27:19.852Z,23.57
2022-08-07T01:28:22.269Z,23.60
2022-08-07T01:29:27.915Z,23.54
2022-08-07T01:30:33.825Z,23.53
2022-08-07T01:31:42.718Z,23.65
2022-08-07T01:32:50.013Z,23.61
2022-08-07T01:33:55.007Z,23.53
2022-08-07T01:34:58.413Z,23.65
2022-08-07T01:36:06.242Z,23.65
2022-08-07T01:37:09.657Z,23.64
2022-08-07T01:38:12.319Z,23.63
2022-08-07T01:39:14.159Z,23.62
2022-08-07T01:40:20.942Z,23.60
2022-08-07T01:41:26.246Z,23.59
2022-08-07T01:42:37.993Z,23.50
2022-08-07T01:43:42.180Z,23.56
2022-08-07T01:44:44.489Z,23.56
2022-08-07T01:45:50.711Z,23.57
2022-08-07T01:46:57.405Z,23.51
2022-08-07T01:48:27.350Z,23.52
2022-08-07T01:49:26.328Z,23.54
2022-08-07T01:50:30.046Z,23.51
2022-08-07T01:52:01.635Z,23.48
2022-08-07T01:52:58.449Z,23.37
2022-08-07T01:54:08.906Z,23.40
2022-08-07T01:55:22.374Z,23.40
2022-08-07T01:56:29.870Z,23.38
2022-08-07T01:58:05.728Z,23.37
2022-08-07T01:59:09.542Z,23.36
2022-08-07T02:00:17.776Z,23.38
2022-08-07T02:01:59.781Z,23.38
2022-08-07T02:03:11.975Z,23.36
2022-08-07T02:04:27.907Z,23.35
2022-08-07T02:06:00.072Z,23.33
2022-08-07T02:07:04.881Z,23.28
2022-08-07T02:08:13.996Z,23.35
2022-08-07T02:09:52.461Z,23.35
2022-08-07T02:10:43.835Z,23.34
2022-08-07T02:12:04.279Z,23.36
2022-08-07T02:13:07.888Z,23.29
2022-08-07T02:14:14.563Z,23.36
2022-08-07T02:15:35.070Z,23.34
2022-08-07T02:16:39.756Z,23.36
2022-08-07T02:17:49.733Z,23.40
2022-08-07T02:18:54.987Z,23.40
2022-08-07T02:20:07.817Z,23.38
2022-08-07T02:21:20.438Z,23.38
2022-08-07T02:22:25.908Z,23.38
2022-08-07T02:23:29.407Z,23.23
2022-08-07T02:24:37.487Z,23.36
2022-08-07T02:26:26.623Z,23.42
2022-08-07T02:27:03.297Z,23.44
2022-08-07T02:28:07.053Z,23.46
2022-08-07T02:29:14.012Z,23.46
2022-08-07T02:30:16.141Z,23.45
2022-08-07T02:31:28.653Z,23.41
2022-08-07T02:32:33.443Z,23.36
2022-08-07T02:33:57.143Z,23.33
2022-08-07T02:35:01.134Z,23.29
2022-08-07T02:36:30.728Z,23.34
2022-08-07T02:37:30.674Z,23.31
2022-08-07T02:38:39.726Z,23.20
2022-08-07T02:40:02.216Z,23.31
2022-08-07T02:41:21.708Z,23.30
2022-08-07T02:42:24.146Z,23.21
2022-08-07T02:43:28.167Z,23.19
2022-08-07T02:44:34.635Z,23.30
2022-08-07T02:45:58.310Z,23.27
2022-08-07T02:47:05.141Z,23.30
2022-08-07T02:48:10.247Z,23.32
2022-08-07T02:49:28.611Z,23.33
2022-08-07T02:50:43.212Z,23.34
2022-08-07T02:51:52.081Z,23.35
2022-08-07T02:53:06.341Z,23.32
2022-08-07T02:54:10.478Z,23.35
2022-08-07T02:55:28.653Z,23.31
2022-08-07T02:56:46.677Z,23.36
2022-08-07T02:57:50.109Z,23.36
2022-08-07T02:58:55.359Z,23.39
2022-08-07T03:00:01.167Z,23.41
2022-08-07T03:01:16.053Z,23.40
2022-08-07T03:02:21.496Z,23.44
2022-08-07T03:03:29.577Z,23.44
2022-08-07T03:04:50.103Z,23.47
2022-08-07T03:05:54.650Z,23.47
2022-08-07T03:06:58.812Z,23.47
2022-08-07T03:08:10.259Z,23.46
2022-08-07T03:09:13.927Z,23.49
2022-08-07T03:10:18.050Z,23.47
2022-08-07T03:11:28.253Z,23.50
2022-08-07T03:12:31.210Z,23.52
2022-08-07T03:13:38.797Z,23.54
2022-08-07T03:14:42.752Z,23.55
2022-08-07T03:15:56.395Z,23.58
2022-08-07T03:17:00.568Z,23.58
2022-08-07T03:18:06.243Z,23.61
2022-08-07T03:19:09.271Z,23.60
2022-08-07T03:20:11.685Z,23.67
2022-08-07T03:21:18.877Z,23.69
2022-08-07T03:22:22.557Z,23.70
2022-08-07T03:23:34.128Z,23.72
2022-08-07T03:24:49.899Z,23.72
2022-08-07T03:25:58.136Z,23.75
2022-08-07T03:27:04.386Z,23.77
2022-08-07T03:28:38.197Z,23.77
2022-08-07T03:29:39.340Z,23.79
2022-08-07T03:30:49.027Z,23.78
2022-08-07T03:31:52.391Z,23.88
2022-08-07T03:32:58.402Z,23.91
2022-08-07T03:34:02.468Z,23.92
2022-08-07T03:35:16.643Z,23.97
2022-08-07T03:36:20.378Z,23.96
2022-08-07T03:37:32.738Z,23.99
2022-08-07T03:38:40.408Z,24.05
2022-08-07T03:39:59.159Z,23.96
2022-08-07T03:41:03.353Z,24.02
2022-08-07T03:42:07.105Z,23.99
2022-08-07T03:43:14.781Z,24.15
2022-08-07T03:44:17.125Z,24.16
2022-08-07T03:45:33.705Z,24.14
2022-08-07T03:47:13.539Z,24.15
2022-08-07T03:48:10.066Z,24.14
2022-08-07T03:49:13.635Z,24.13
2022-08-07T03:50:22.980Z,24.15
2022-08-07T03:51:30.934Z,24.14
2022-08-07T03:52:51.356Z,24.20
2022-08-07T03:54:33.133Z,24.24
2022-08-07T03:55:15.147Z,24.11
2022-08-07T03:56:33.166Z,24.25
2022-08-07T03:58:33.205Z,24.27
2022-08-07T03:59:12.661Z,24.28
2022-08-07T04:00:15.604Z,24.31
2022-08-07T04:01:19.778Z,24.35
2022-08-07T04:02:24.775Z,24.36
2022-08-07T04:03:26.816Z,24.27
2022-08-07T04:04:28.678Z,24.38
2022-08-07T04:05:39.493Z,24.40
2022-08-07T04:06:44.342Z,24.42
2022-08-07T04:07:47.309Z,24.46
2022-08-07T04:08:51.611Z,24.49
2022-08-07T04:09:55.228Z,24.51
2022-08-07T04:12:25.746Z,24.50
2022-08-07T04:12:26.214Z,24.55
2022-08-07T04:13:30.359Z,24.46
2022-08-07T04:14:53.126Z,24.51
2022-08-07T04:15:55.168Z,24.63
2022-08-07T04:16:58.269Z,24.67
2022-08-07T04:18:31.385Z,24.70
2022-08-07T04:19:51.054Z,24.71
2022-08-07T04:20:54.851Z,24.73
2022-08-07T04:22:05.364Z,24.75
2022-08-07T04:23:10.560Z,24.78
2022-08-07T04:24:30.535Z,24.82
2022-08-07T04:25:39.330Z,24.84
2022-08-07T04:26:43.694Z,24.82
2022-08-07T04:27:59.447Z,24.82
2022-08-07T04:29:03.008Z,24.62
2022-08-07T04:30:11.930Z,24.62
2022-08-07T04:31:38.762Z,24.68
2022-08-07T04:32:48.330Z,24.64
2022-08-07T04:34:00.639Z,24.68
2022-08-07T04:35:05.652Z,24.72
2022-08-07T04:36:09.137Z,24.75
2022-08-07T04:37:15.241Z,24.83
2022-08-07T04:38:23.061Z,24.85
2022-08-07T04:39:26.256Z,24.86
2022-08-07T04:40:30.060Z,24.81
2022-08-07T04:41:36.902Z,24.90
2022-08-07T04:42:38.799Z,24.81
2022-08-07T04:44:09.982Z,24.95
2022-08-07T04:45:11.585Z,24.95
2022-08-07T04:46:29.303Z,24.98
2022-08-07T04:47:57.349Z,24.95
2022-08-07T04:49:38.643Z,24.98
2022-08-07T04:51:03.330Z,24.98
2022-08-07T04:52:26.537Z,25.02
2022-08-07T04:54:05.407Z,25.03
2022-08-07T04:58:12.541Z,25.07
2022-08-07T04:58:15.261Z,25.04
2022-08-07T04:58:27.163Z,25.12
2022-08-07T05:00:11.169Z,25.13
2022-08-07T05:01:43.150Z,25.24
2022-08-07T05:03:17.241Z,25.26
2022-08-07T05:04:50.110Z,25.30
2022-08-07T05:06:19.551Z,25.34
2022-08-07T05:07:48.083Z,25.35
2022-08-07T05:09:10.988Z,25.48
2022-08-07T05:10:19.745Z,25.53
2022-08-07T05:11:57.364Z,25.52
2022-08-07T05:13:09.847Z,25.63
2022-08-07T05:14:55.370Z,25.60
2022-08-07T05:16:04.691Z,25.75
2022-08-07T05:17:11.815Z,25.66
2022-08-07T05:18:22.640Z,25.77
2022-08-07T05:19:32.812Z,25.78
2022-08-07T05:20:53.907Z,25.79
2022-08-07T05:22:01.970Z,25.80
2022-08-07T05:23:31.128Z,25.69
2022-08-07T05:24:40.653Z,25.72
2022-08-07T05:26:13.519Z,25.76
2022-08-07T05:27:18.430Z,25.81
2022-08-07T05:28:34.084Z,25.87
2022-08-07T05:29:51.046Z,25.90
2022-08-07T05:30:57.308Z,25.96
2022-08-07T05:32:01.106Z,26.01
2022-08-07T05:33:06.042Z,26.02
2022-08-07T05:34:13.423Z,26.18
2022-08-07T05:35:33.038Z,26.29
2022-08-07T05:36:39.099Z,26.34
2022-08-07T05:37:42.498Z,26.32
2022-08-07T05:39:00.302Z,26.49
2022-08-07T05:40:18.016Z,26.61
2022-08-07T05:41:21.880Z,26.69
2022-08-07T05:42:33.761Z,26.81
2022-08-07T05:44:01.347Z,27.00
2022-08-07T05:45:14.739Z,27.18
2022-08-07T05:46:26.458Z,27.43
2022-08-07T05:47:37.860Z,27.59
2022-08-07T05:48:59.321Z,27.82
2022-08-07T05:50:02.499Z,28.06
2022-08-07T05:51:04.514Z,28.18
2022-08-07T05:52:06.510Z,28.32
2022-08-07T05:54:09.345Z,28.45
2022-08-07T05:54:44.459Z,28.66
2022-08-07T05:56:03.366Z,28.71
2022-08-07T05:57:09.337Z,28.94
2022-08-07T05:58:12.421Z,28.92
2022-08-07T05:59:17.653Z,29.07
2022-08-07T06:00:20.195Z,29.18
2022-08-07T06:01:23.722Z,29.35
2022-08-07T06:02:30.689Z,29.44
2022-08-07T06:03:53.599Z,29.58
2022-08-07T06:04:59.713Z,29.72
2022-08-07T06:06:01.818Z,29.81
2022-08-07T06:07:06.131Z,29.90
2022-08-07T06:08:29.788Z,30.05
2022-08-07T06:10:04.260Z,30.38
2022-08-07T06:10:54.686Z,30.90
2022-08-07T06:11:58.543Z,31.16
2022-08-07T06:13:02.273Z,31.51
2022-08-07T06:14:11.645Z,31.79
2022-08-07T06:15:16.450Z,32.05
2022-08-07T06:16:23.731Z,32.17
2022-08-07T06:17:38.138Z,32.23
2022-08-07T06:18:51.866Z,32.24
2022-08-07T06:20:04.316Z,32.42
2022-08-07T06:22:16.687Z,32.74
2022-08-07T06:22:38.731Z,33.12
2022-08-07T06:24:38.526Z,33.35
2022-08-07T06:25:06.030Z,33.61
2022-08-07T06:26:13.620Z,33.96
2022-08-07T06:27:44.305Z,34.16
2022-08-07T06:28:53.612Z,34.60
2022-08-07T06:29:55.393Z,34.97
2022-08-07T06:30:58.563Z,35.20
2022-08-07T06:32:01.598Z,35.38
2022-08-07T06:33:04.671Z,35.45
2022-08-07T06:34:06.459Z,35.64
2022-08-07T06:35:17.621Z,35.79
2022-08-07T06:36:35.003Z,36.02
2022-08-07T06:37:43.482Z,36.36
2022-08-07T06:38:58.652Z,36.51
2022-08-07T06:40:16.464Z,36.58
2022-08-07T06:42:09.069Z,36.72
2022-08-07T06:43:21.379Z,36.95
2022-08-07T06:44:26.465Z,37.15
2022-08-07T06:45:36.373Z,37.52
2022-08-07T06:46:40.318Z,37.67
2022-08-07T06:47:57.447Z,37.78
2022-08-07T06:49:04.317Z,37.94
2022-08-07T06:50:08.235Z,38.20
2022-08-07T06:51:30.943Z,38.30
2022-08-07T06:52:42.215Z,38.27
2022-08-07T06:55:28.141Z,38.55
2022-08-07T06:55:34.197Z,38.80
2022-08-07T06:56:48.668Z,38.92
2022-08-07T06:57:57.169Z,39.13
2022-08-07T07:00:17.809Z,39.32
2022-08-07T07:00:22.925Z,39.52
2022-08-07T07:01:25.905Z,39.72
2022-08-07T07:02:53.460Z,39.88
2022-08-07T07:04:08.309Z,40.04
2022-08-07T07:06:02.440Z,40.12
2022-08-07T07:07:00.588Z,40.00
2022-08-07T07:08:07.388Z,39.93
2022-08-07T07:09:25.674Z,39.90
2022-08-07T07:10:34.845Z,39.81
2022-08-07T07:12:09.169Z,39.44
2022-08-07T07:13:08.277Z,38.25
2022-08-07T07:14:14.026Z,37.75
2022-08-07T07:15:32.364Z,37.41
2022-08-07T07:16:45.140Z,37.37
2022-08-07T07:17:55.308Z,37.31
2022-08-07T07:19:33.873Z,37.30
2022-08-07T07:20:51.417Z,37.52
2022-08-07T07:22:04.812Z,37.70
2022-08-07T07:24:11.126Z,37.81
2022-08-07T07:24:38.543Z,38.26
2022-08-07T07:26:32.807Z,38.73
2022-08-07T07:27:11.631Z,39.11
2022-08-07T07:28:42.726Z,39.18
2022-08-07T07:30:07.565Z,38.96
2022-08-07T07:31:44.586Z,38.79
2022-08-07T07:32:48.641Z,38.64
2022-08-07T07:33:57.375Z,38.17
2022-08-07T07:35:04.022Z,38.24
2022-08-07T07:36:12.877Z,38.39
2022-08-07T07:37:44.300Z,38.60
2022-08-07T07:38:40.111Z,38.82
2022-08-07T07:39:51.924Z,38.92
2022-08-07T07:41:01.808Z,38.97
2022-08-07T07:42:13.089Z,38.94
2022-08-07T07:43:18.695Z,38.51
2022-08-07T07:44:31.710Z,38.55
2022-08-07T07:46:37.545Z,38.68
2022-08-07T07:47:11.927Z,38.82
2022-08-07T07:48:34.724Z,38.61
2022-08-07T07:50:35.484Z,37.83
2022-08-07T07:51:03.366Z,37.61
2022-08-07T07:52:13.107Z,37.86
2022-08-07T07:53:23.242Z,38.04
2022-08-07T07:54:28.559Z,38.38
2022-08-07T07:55:37.681Z,38.50
2022-08-07T07:56:49.101Z,38.75
2022-08-07T07:57:54.091Z,38.51
2022-08-07T07:59:01.975Z,38.84
2022-08-07T08:00:05.366Z,38.76
2022-08-07T08:02:02.086Z,38.82
2022-08-07T08:02:36.104Z,39.02
2022-08-07T08:04:09.572Z,38.95
2022-08-07T08:05:05.446Z,38.31
2022-08-07T08:06:17.976Z,38.11
2022-08-07T08:07:20.051Z,37.85
2022-08-07T08:08:34.328Z,37.76
2022-08-07T08:09:52.319Z,38.08
2022-08-07T08:11:03.032Z,37.76
2022-08-07T08:12:09.582Z,37.43
2022-08-07T08:13:15.610Z,37.47
2022-08-07T08:14:21.427Z,37.85
2022-08-07T08:15:57.951Z,38.03
2022-08-07T08:16:55.725Z,37.74
2022-08-07T08:18:18.676Z,37.72
2022-08-07T08:20:17.302Z,37.96
2022-08-07T08:20:48.778Z,38.08
2022-08-07T08:22:10.834Z,37.96
2022-08-07T08:23:32.888Z,38.25
2022-08-07T08:25:15.903Z,38.28
2022-08-07T08:26:40.546Z,38.61
2022-08-07T08:27:56.029Z,38.63
2022-08-07T08:29:01.333Z,38.40
2022-08-07T08:30:14.326Z,38.26
2022-08-07T08:31:58.374Z,38.18
2022-08-07T08:32:54.103Z,37.96
2022-08-07T08:33:58.044Z,37.83
2022-08-07T08:35:00.460Z,37.77
2022-08-07T08:36:04.113Z,38.11
2022-08-07T08:37:09.760Z,38.33
2022-08-07T08:38:13.566Z,38.99
2022-08-07T08:39:15.589Z,39.37
2022-08-07T08:40:30.882Z,39.72
2022-08-07T08:42:00.053Z,40.09
2022-08-07T08:43:10.717Z,40.40
2022-08-07T08:44:29.374Z,40.71
2022-08-07T08:45:59.519Z,40.96
2022-08-07T08:47:10.087Z,41.16
2022-08-07T08:48:36.398Z,41.05
2022-08-07T08:50:06.048Z,41.28
2022-08-07T08:51:26.301Z,41.22
2022-08-07T08:52:53.735Z,41.06
2022-08-07T08:54:12.826Z,41.12
2022-08-07T08:55:55.555Z,41.43
2022-08-07T08:57:07.313Z,41.54
2022-08-07T08:58:20.211Z,41.65
2022-08-07T08:59:42.313Z,41.79
2022-08-07T09:00:54.950Z,41.93
2022-08-07T09:02:40.497Z,42.14
2022-08-07T09:04:08.016Z,42.29
2022-08-07T09:05:32.006Z,41.93
2022-08-07T09:07:02.415Z,41.41
2022-08-07T09:08:24.368Z,41.52
2022-08-07T09:10:04.611Z,41.48
2022-08-07T09:11:43.533Z,41.47
2022-08-07T09:13:06.989Z,41.55
2022-08-07T09:14:14.395Z,41.80
2022-08-07T09:16:24.534Z,41.72
2022-08-07T09:17:07.921Z,41.26
2022-08-07T09:18:41.583Z,40.99
2022-08-07T09:20:35.653Z,40.78
2022-08-07T09:22:22.591Z,40.75
2022-08-07T09:24:33.686Z,40.48
2022-08-07T09:25:11.964Z,40.52
2022-08-07T09:26:28.192Z,40.50
2022-08-07T09:27:31.294Z,40.01
2022-08-07T09:30:01.924Z,39.82
2022-08-07T09:30:09.476Z,39.93
2022-08-07T09:31:11.191Z,39.85
2022-08-07T09:32:35.637Z,39.72
2022-08-07T09:33:56.660Z,39.56
2022-08-07T09:36:04.048Z,39.00
2022-08-07T09:37:12.576Z,38.56
2022-08-07T09:38:19.925Z,38.40
2022-08-07T09:39:53.610Z,38.18
2022-08-07T09:41:16.912Z,38.38
2022-08-07T09:42:25.266Z,38.20
2022-08-07T09:44:06.370Z,38.10
2022-08-07T09:47:25.943Z,38.20
2022-08-07T09:47:52.544Z,38.55
2022-08-07T09:48:28.742Z,38.83
2022-08-07T09:50:00.886Z,39.08
2022-08-07T09:52:16.539Z,39.16
2022-08-07T09:53:02.253Z,39.24
2022-08-07T09:54:08.362Z,38.94
2022-08-07T09:56:03.933Z,38.90
2022-08-07T09:57:19.962Z,39.26
2022-08-07T09:58:48.585Z,38.97
2022-08-07T10:00:03.821Z,38.59
2022-08-07T10:01:51.375Z,38.77
2022-08-07T10:04:03.336Z,38.60
2022-08-07T10:05:12.494Z,38.48
2022-08-07T10:06:31.782Z,38.53
2022-08-07T10:08:13.073Z,38.36
2022-08-07T10:09:59.175Z,38.50
2022-08-07T10:12:02.012Z,38.31
2022-08-07T10:13:55.003Z,37.55
2022-08-07T10:14:56.569Z,37.35
2022-08-07T10:16:13.145Z,37.06
2022-08-07T10:18:01.293Z,36.87
2022-08-07T10:19:42.125Z,36.72
2022-08-07T10:21:05.361Z,36.86
2022-08-07T10:22:36.788Z,37.07
2022-08-07T10:24:21.312Z,37.00
2022-08-07T10:25:51.940Z,36.80
2022-08-07T10:27:10.402Z,36.91
2022-08-07T10:28:13.150Z,37.01
2022-08-07T10:29:39.376Z,36.98
2022-08-07T10:31:11.331Z,36.94
2022-08-07T10:32:51.074Z,36.95
2022-08-07T10:34:40.402Z,36.95
2022-08-07T10:36:17.978Z,36.88
2022-08-07T10:38:35.068Z,36.64
2022-08-07T10:39:42.050Z,36.51
2022-08-07T10:41:12.136Z,36.34
2022-08-07T10:42:31.203Z,36.24
2022-08-07T10:44:02.301Z,36.20
2022-08-07T10:45:12.039Z,36.20
2022-08-07T10:46:24.308Z,36.29
2022-08-07T10:47:52.912Z,36.23
2022-08-07T10:49:14.934Z,36.07
2022-08-07T10:50:25.913Z,35.88
2022-08-07T10:51:39.619Z,35.87
2022-08-07T10:53:05.383Z,35.77
2022-08-07T10:54:38.271Z,35.72
2022-08-07T10:55:50.631Z,35.60
2022-08-07T10:57:13.887Z,35.45
2022-08-07T10:58:59.553Z,35.34
2022-08-07T11:00:09.702Z,35.27
2022-08-07T11:02:27.400Z,35.26
2022-08-07T11:03:52.751Z,35.32
2022-08-07T11:05:24.788Z,35.07
2022-08-07T11:07:15.039Z,35.11
2022-08-07T11:10:07.567Z,35.28
2022-08-07T11:11:08.170Z,36.17
2022-08-07T11:12:43.297Z,36.65
2022-08-07T11:14:45.608Z,37.28
2022-08-07T11:15:31.476Z,37.70
2022-08-07T11:16:49.415Z,37.82
2022-08-07T11:18:04.716Z,38.19
2022-08-07T11:19:27.468Z,38.53
2022-08-07T11:20:56.710Z,39.03
2022-08-07T11:22:33.309Z,39.40
2022-08-07T11:23:48.452Z,39.67
2022-08-07T11:25:00.440Z,39.64
2022-08-07T11:26:17.655Z,38.79
2022-08-07T11:28:01.276Z,37.76
2022-08-07T11:29:41.219Z,37.55
2022-08-07T11:30:59.438Z,37.50
2022-08-07T11:32:29.430Z,37.17
2022-08-07T11:34:20.586Z,36.96
2022-08-07T11:35:30.311Z,36.91
2022-08-07T11:36:54.291Z,36.90
2022-08-07T11:38:21.439Z,36.90
2022-08-07T11:40:00.450Z,36.92
2022-08-07T11:41:18.013Z,36.77
2022-08-07T11:42:54.364Z,36.66
2022-08-07T11:44:12.789Z,36.36
2022-08-07T11:45:35.507Z,36.30
2022-08-07T11:46:50.227Z,36.60
2022-08-07T11:48:18.309Z,36.99
2022-08-07T11:50:30.772Z,37.41
2022-08-07T11:51:44.621Z,37.69
2022-08-07T11:53:01.851Z,37.83
2022-08-07T11:54:54.991Z,38.00
2022-08-07T11:56:30.784Z,38.09
2022-08-07T11:58:16.232Z,38.10
2022-08-07T12:00:11.140Z,37.63
2022-08-07T12:01:05.233Z,36.89
2022-08-07T12:02:17.673Z,36.76
2022-08-07T12:04:05.572Z,36.14
2022-08-07T12:05:49.001Z,35.68
2022-08-07T12:07:20.159Z,35.57
2022-08-07T12:08:45.595Z,35.18
2022-08-07T12:09:57.258Z,34.96
2022-08-07T12:11:21.516Z,34.91
2022-08-07T12:12:35.679Z,34.91
2022-08-07T12:14:01.447Z,34.83
2022-08-07T12:15:16.989Z,35.04
2022-08-07T12:16:42.631Z,35.14
2022-08-07T12:17:58.594Z,35.07
2022-08-07T12:19:22.074Z,35.14
2022-08-07T12:20:49.362Z,35.04
2022-08-07T12:22:38.742Z,35.03
2022-08-07T12:24:07.298Z,34.82
2022-08-07T12:26:05.685Z,34.57
2022-08-07T12:27:18.725Z,34.55
2022-08-07T12:28:57.594Z,34.61
2022-08-07T12:30:07.453Z,34.75
2022-08-07T12:31:17.326Z,34.88
2022-08-07T12:32:38.241Z,35.12
2022-08-07T12:34:00.662Z,35.16
2022-08-07T12:35:05.576Z,35.40
2022-08-07T12:36:11.436Z,35.45
2022-08-07T12:37:16.936Z,35.55
2022-08-07T12:38:39.136Z,35.79
2022-08-07T12:39:51.278Z,36.12
2022-08-07T12:40:55.435Z,36.33
2022-08-07T12:42:01.230Z,36.50
2022-08-07T12:43:09.266Z,36.67
2022-08-07T12:44:17.368Z,36.68
2022-08-07T12:45:30.563Z,36.64
2022-08-07T12:47:06.260Z,36.73
2022-08-07T12:48:52.093Z,36.54
2022-08-07T12:50:34.081Z,36.31
2022-08-07T12:52:14.377Z,35.89
2022-08-07T12:53:22.421Z,35.32
2022-08-07T12:54:38.933Z,34.85
2022-08-07T12:56:03.975Z,34.55
2022-08-07T12:57:09.594Z,34.50
2022-08-07T12:58:15.979Z,34.18
2022-08-07T12:59:21.780Z,34.17
2022-08-07T13:00:35.907Z,34.24
2022-08-07T13:01:55.790Z,34.34
2022-08-07T13:03:54.802Z,34.28
2022-08-07T13:05:01.770Z,34.25
2022-08-07T13:06:27.014Z,34.28
2022-08-07T13:08:13.699Z,34.29
2022-08-07T13:10:20.454Z,34.31
2022-08-07T13:12:02.658Z,34.16
2022-08-07T13:13:46.971Z,34.15
2022-08-07T13:15:09.573Z,34.18
2022-08-07T13:16:36.610Z,34.00
2022-08-07T13:17:42.704Z,34.04
2022-08-07T13:18:59.560Z,34.07
2022-08-07T13:20:09.871Z,34.13
2022-08-07T13:21:37.388Z,34.11
2022-08-07T13:23:09.719Z,34.05
2022-08-07T13:24:29.464Z,33.97
2022-08-07T13:26:04.269Z,33.93
2022-08-07T13:27:13.456Z,33.98
2022-08-07T13:28:34.021Z,33.95
2022-08-07T13:29:52.972Z,33.97
2022-08-07T13:31:06.391Z,33.86
2022-08-07T13:32:38.795Z,33.82
2022-08-07T13:34:32.034Z,33.63
2022-08-07T13:35:24.497Z,33.47
2022-08-07T13:37:30.622Z,33.26
2022-08-07T13:39:01.806Z,33.10
2022-08-07T13:40:35.914Z,33.05
2022-08-07T13:41:42.511Z,32.98
2022-08-07T13:42:51.484Z,32.98
2022-08-07T13:43:56.531Z,32.83
2022-08-07T13:46:07.130Z,32.84
2022-08-07T13:46:28.266Z,32.71
2022-08-07T13:48:06.842Z,32.67
2022-08-07T13:49:02.087Z,32.68
2022-08-07T13:50:34.310Z,32.63
2022-08-07T13:52:04.681Z,32.61
2022-08-07T13:52:55.384Z,32.61
2022-08-07T13:54:03.371Z,32.65
2022-08-07T13:55:34.136Z,32.60
2022-08-07T13:56:51.675Z,32.57
2022-08-07T13:58:28.050Z,32.63
2022-08-07T13:59:33.884Z,32.69
2022-08-07T14:00:39.476Z,32.42
2022-08-07T14:02:07.790Z,32.17
2022-08-07T14:03:09.818Z,31.79
2022-08-07T14:04:17.161Z,31.49
2022-08-07T14:05:25.126Z,31.16
2022-08-07T14:06:42.080Z,30.88
2022-08-07T14:07:59.340Z,30.73
2022-08-07T14:09:04.781Z,30.29
2022-08-07T14:10:16.328Z,29.92
2022-08-07T14:11:22.182Z,29.72
2022-08-07T14:12:36.224Z,29.63
2022-08-07T14:13:53.418Z,29.52
2022-08-07T14:15:08.976Z,29.49
2022-08-07T14:16:16.115Z,29.53
2022-08-07T14:18:12.845Z,29.66
2022-08-07T14:18:49.855Z,29.70
2022-08-07T14:20:40.571Z,29.74
2022-08-07T14:22:04.266Z,30.03
2022-08-07T14:23:59.053Z,30.23
2022-08-07T14:24:45.670Z,30.24
2022-08-07T14:25:54.844Z,30.18
2022-08-07T14:27:00.373Z,30.31
2022-08-07T14:28:10.588Z,30.35
2022-08-07T14:30:02.983Z,30.23
2022-08-07T14:30:47.350Z,30.07
2022-08-07T14:31:56.379Z,30.03
2022-08-07T14:33:04.735Z,29.90
2022-08-07T14:34:07.879Z,29.78
2022-08-07T14:35:44.709Z,29.74
2022-08-07T14:36:41.636Z,29.70
2022-08-07T14:38:05.608Z,29.74
2022-08-07T14:39:12.518Z,29.83
2022-08-07T14:40:35.317Z,29.82
2022-08-07T14:42:20.664Z,29.70
2022-08-07T14:43:58.779Z,29.72
2022-08-07T14:44:33.009Z,29.68
2022-08-07T14:45:46.444Z,29.71
2022-08-07T14:46:58.678Z,29.75
2022-08-07T14:49:56.789Z,30.02
2022-08-07T14:51:05.046Z,30.08
2022-08-07T14:52:10.559Z,30.17
2022-08-07T14:53:13.927Z,30.21
2022-08-07T14:54:34.415Z,30.26
2022-08-07T14:55:55.834Z,30.23
2022-08-07T14:57:02.836Z,30.28
2022-08-07T14:58:06.159Z,30.24
2022-08-07T15:00:36.254Z,30.24
2022-08-07T15:01:51.092Z,30.22
2022-08-07T15:04:18.202Z,30.32
2022-08-07T15:05:23.664Z,30.38
2022-08-07T15:06:29.870Z,30.35
2022-08-07T15:09:59.592Z,30.35
2022-08-07T15:10:29.880Z,30.35
2022-08-07T15:11:53.594Z,30.39
2022-08-07T15:13:25.315Z,30.35
2022-08-07T15:14:30.418Z,30.29
2022-08-07T15:15:38.977Z,30.25
2022-08-07T15:16:54.589Z,30.11
2022-08-07T15:18:02.593Z,30.00
2022-08-07T15:19:14.184Z,29.98
2022-08-07T15:20:32.951Z,29.93
2022-08-07T15:21:58.559Z,29.82
2022-08-07T15:23:20.486Z,29.69
2022-08-07T15:25:14.182Z,29.78
2022-08-07T15:25:55.860Z,29.68
2022-08-07T15:27:10.390Z,29.62
2022-08-07T15:32:51.049Z,29.55
2022-08-07T15:34:05.617Z,29.44
2022-08-07T15:36:01.407Z,29.38
2022-08-07T15:37:02.897Z,29.37
2022-08-07T15:38:30.132Z,29.37
2022-08-07T15:39:28.137Z,29.33
2022-08-07T15:44:05.027Z,29.16
2022-08-07T15:46:51.642Z,29.30
2022-08-07T15:48:23.483Z,29.33
2022-08-07T15:50:04.495Z,29.38
2022-08-07T15:52:30.306Z,29.44
2022-08-07T15:53:53.090Z,29.49
2022-08-07T15:54:57.090Z,29.51
2022-08-07T15:56:13.290Z,29.44
2022-08-07T15:57:39.615Z,29.48
2022-08-07T15:58:53.009Z,29.51
2022-08-07T15:59:56.779Z,29.49
2022-08-07T16:01:05.574Z,29.39
2022-08-07T16:02:08.742Z,29.33
2022-08-07T16:03:21.331Z,29.30
2022-08-07T16:04:31.585Z,29.34
2022-08-07T16:05:34.949Z,29.35
2022-08-07T16:06:43.719Z,29.39
2022-08-07T16:08:30.310Z,29.44
2022-08-07T16:09:23.169Z,29.41
2022-08-07T16:10:29.463Z,29.37
2022-08-07T16:11:46.186Z,29.35
2022-08-07T16:13:39.403Z,29.41
2022-08-07T16:14:43.259Z,29.43
2022-08-07T16:16:48.023Z,29.46
2022-08-07T16:18:01.816Z,29.43
2022-08-07T16:19:41.892Z,29.37
2022-08-07T16:20:55.140Z,29.39
2022-08-07T16:22:54.865Z,29.29
2022-08-07T16:24:03.163Z,29.21
2022-08-07T16:25:53.082Z,29.17
2022-08-07T16:27:19.199Z,29.01
2022-08-07T16:30:07.195Z,28.97
2022-08-07T16:30:30.479Z,28.92
2022-08-07T16:31:51.312Z,28.78
2022-08-07T16:34:03.053Z,28.68
2022-08-07T16:34:56.781Z,28.67
2022-08-07T16:36:20.709Z,28.72
2022-08-07T16:38:04.079Z,28.73
2022-08-07T16:39:33.748Z,28.67
2022-08-07T16:41:12.930Z,28.72
2022-08-07T16:42:45.805Z,28.61
2022-08-07T16:44:06.332Z,28.62